createdAt,value
2023-03-13T00:00:10.630Z,35.30
2023-03-13T00:02:37.909Z,35.33
2023-03-13T00:05:05.927Z,35.36
2023-03-13T00:07:33.420Z,35.42
2023-03-13T00:10:00.853Z,35.43
2023-03-13T00:12:28.562Z,35.43
2023-03-13T00:14:56.075Z,35.48
2023-03-13T00:17:23.542Z,35.51
2023-03-13T00:19:51.318Z,35.50
2023-03-13T00:22:18.770Z,35.56
2023-03-13T00:24:46.608Z,35.54
2023-03-13T00:27:14.312Z,35.65
2023-03-13T00:29:41.753Z,35.69
2023-03-13T00:32:09.242Z,35.76
2023-03-13T00:34:37.122Z,35.83
2023-03-13T00:37:06.520Z,35.78
2023-03-13T00:39:33.988Z,35.86
2023-03-13T00:42:04.025Z,35.84
2023-03-13T00:44:31.493Z,35.86
2023-03-13T00:46:58.924Z,35.97
2023-03-13T00:49:26.712Z,35.92
2023-03-13T00:51:56.209Z,35.93
2023-03-13T00:54:23.649Z,35.97
2023-03-13T00:56:51.345Z,35.90
2023-03-13T00:59:18.861Z,35.97
2023-03-13T01:01:46.313Z,36.02
2023-03-13T01:04:14.127Z,36.13
2023-03-13T01:06:43.124Z,36.11
2023-03-13T01:09:13.513Z,36.11
2023-03-13T01:11:42.990Z,36.11
2023-03-13T01:14:13.126Z,36.11
2023-03-13T01:16:40.489Z,36.04
2023-03-13T01:19:13.656Z,35.92
2023-03-13T01:21:42.088Z,36.04
2023-03-13T01:24:09.799Z,36.16
2023-03-13T01:26:37.254Z,36.21
2023-03-13T01:29:04.727Z,36.19
2023-03-13T01:31:33.852Z,36.17
2023-03-13T01:34:03.528Z,36.16
2023-03-13T01:36:31.630Z,36.18
2023-03-13T01:39:00.297Z,35.96
2023-03-13T01:41:28.975Z,36.10
2023-03-13T01:43:56.618Z,36.08
2023-03-13T01:46:29.257Z,36.18
2023-03-13T01:49:03.859Z,36.15
2023-03-13T01:52:01.849Z,36.14
2023-03-13T01:54:32.509Z,36.13
2023-03-13T01:57:16.391Z,36.13
2023-03-13T01:59:49.681Z,36.04
2023-03-13T02:02:17.404Z,36.06
2023-03-13T02:04:50.135Z,36.08
2023-03-13T02:07:21.045Z,36.09
2023-03-13T02:09:51.419Z,36.10
2023-03-13T02:12:30.795Z,36.18
2023-03-13T02:15:04.800Z,36.14
2023-03-13T02:17:33.132Z,36.09
2023-03-13T02:20:02.070Z,36.16
2023-03-13T02:22:39.322Z,36.13
2023-03-13T02:25:18.572Z,36.14
2023-03-13T02:27:46.085Z,36.11
2023-03-13T02:30:14.085Z,36.13
2023-03-13T02:32:41.754Z,36.18
2023-03-13T02:35:11.280Z,36.18
2023-03-13T02:37:39.390Z,36.18
2023-03-13T02:40:11.702Z,36.22
2023-03-13T02:42:39.525Z,36.30
2023-03-13T02:45:07.560Z,36.25
2023-03-13T02:47:35.087Z,36.26
2023-03-13T02:50:02.893Z,36.27
2023-03-13T02:52:33.378Z,36.22
2023-03-13T02:55:12.564Z,36.17
2023-03-13T02:57:40.332Z,36.14
2023-03-13T03:00:13.712Z,36.12
2023-03-13T03:02:41.554Z,36.21
2023-03-13T03:05:09.781Z,36.18
2023-03-13T03:07:37.643Z,36.26
2023-03-13T03:10:07.702Z,36.26
2023-03-13T03:12:36.235Z,36.28
2023-03-13T03:15:04.972Z,36.19
2023-03-13T03:17:33.139Z,36.28
2023-03-13T03:20:00.553Z,36.26
2023-03-13T03:22:28.030Z,36.24
2023-03-13T03:24:55.755Z,36.25
2023-03-13T03:27:24.601Z,36.21
2023-03-13T03:29:52.458Z,36.26
2023-03-13T03:32:22.022Z,36.27
2023-03-13T03:34:49.863Z,36.21
2023-03-13T03:37:17.269Z,36.23
2023-03-13T03:39:44.992Z,36.18
2023-03-13T03:42:12.629Z,36.17
2023-03-13T03:44:40.304Z,36.19
2023-03-13T03:47:09.800Z,36.20
2023-03-13T03:49:38.239Z,36.16
2023-03-13T03:52:06.766Z,36.18
2023-03-13T03:54:35.262Z,36.19
2023-03-13T03:57:02.849Z,36.21
2023-03-13T03:59:30.366Z,36.23
2023-03-13T04:01:58.283Z,36.20
2023-03-13T04:04:26.316Z,36.22
2023-03-13T04:06:54.320Z,36.19
2023-03-13T04:09:21.817Z,36.19
2023-03-13T04:11:49.507Z,36.20
2023-03-13T04:14:16.952Z,36.19
2023-03-13T04:16:45.048Z,36.21
2023-03-13T04:19:14.255Z,36.24
2023-03-13T04:21:42.107Z,36.23
2023-03-13T04:24:09.766Z,36.22
2023-03-13T04:26:38.528Z,36.23
2023-03-13T04:29:06.396Z,36.25
2023-03-13T04:31:34.550Z,36.26
2023-03-13T04:34:02.704Z,36.25
2023-03-13T04:36:30.290Z,36.29
2023-03-13T04:38:57.935Z,36.28
2023-03-13T04:41:26.954Z,36.30
2023-03-13T04:43:55.560Z,36.31
2023-03-13T04:46:23.530Z,36.32
2023-03-13T04:48:51.420Z,36.32
2023-03-13T04:51:19.197Z,36.32
2023-03-13T04:53:46.968Z,36.33
2023-03-13T04:56:41.208Z,36.38
2023-03-13T04:59:11.417Z,36.32
2023-03-13T05:01:39.805Z,34.86
2023-03-13T05:04:07.368Z,34.23
2023-03-13T05:06:35.383Z,34.29
2023-03-13T05:09:03.731Z,34.40
2023-03-13T05:11:31.752Z,34.44
2023-03-13T05:13:59.440Z,34.45
2023-03-13T05:16:27.631Z,34.47
2023-03-13T05:18:55.597Z,34.41
2023-03-13T05:21:23.153Z,34.37
2023-03-13T05:23:51.939Z,34.40
2023-03-13T05:26:21.394Z,34.55
2023-03-13T05:28:48.887Z,34.64
2023-03-13T05:31:16.721Z,34.63
2023-03-13T05:33:44.616Z,34.63
2023-03-13T05:36:12.262Z,34.63
2023-03-13T05:38:40.281Z,34.65
2023-03-13T05:41:08.541Z,34.61
2023-03-13T05:43:36.187Z,34.58
2023-03-13T05:46:04.106Z,34.56
2023-03-13T05:48:31.977Z,34.52
2023-03-13T05:50:59.589Z,34.52
2023-03-13T05:53:27.570Z,34.49
2023-03-13T05:55:55.390Z,34.48
2023-03-13T05:58:23.037Z,34.48
2023-03-13T06:00:50.988Z,34.45
2023-03-13T06:03:21.077Z,34.46
2023-03-13T06:05:50.313Z,34.45
2023-03-13T06:08:20.245Z,34.44
2023-03-13T06:10:50.097Z,34.44
2023-03-13T06:13:20.316Z,34.44
2023-03-13T06:15:53.221Z,34.43
2023-03-13T06:18:23.838Z,34.44
2023-03-13T06:20:57.651Z,34.42
2023-03-13T06:23:25.398Z,34.45
2023-03-13T06:25:52.971Z,34.43
2023-03-13T06:28:20.427Z,34.42
2023-03-13T06:30:48.195Z,34.42
2023-03-13T06:33:15.676Z,34.40
2023-03-13T06:35:55.774Z,34.41
2023-03-13T06:38:24.846Z,34.40
2023-03-13T06:40:52.333Z,34.39
2023-03-13T06:43:20.109Z,34.37
2023-03-13T06:45:47.817Z,34.37
2023-03-13T06:48:15.265Z,34.37
2023-03-13T06:50:42.743Z,34.35
2023-03-13T06:53:18.609Z,34.33
2023-03-13T06:55:46.036Z,34.33
2023-03-13T06:58:25.296Z,34.31
2023-03-13T07:00:58.985Z,34.30
2023-03-13T07:03:26.920Z,34.29
2023-03-13T07:05:58.164Z,34.29
2023-03-13T07:08:25.867Z,34.29
2023-03-13T07:10:54.678Z,34.27
2023-03-13T07:13:22.304Z,34.30
2023-03-13T07:15:49.824Z,34.29
2023-03-13T07:18:17.858Z,34.29
2023-03-13T07:20:45.520Z,34.26
2023-03-13T07:23:13.318Z,34.25
2023-03-13T07:25:41.021Z,34.25
2023-03-13T07:28:08.470Z,34.24
2023-03-13T07:30:35.889Z,34.27
2023-03-13T07:33:03.699Z,34.33
2023-03-13T07:35:31.124Z,34.31
2023-03-13T07:37:58.545Z,34.29
2023-03-13T07:40:26.313Z,34.34
2023-03-13T07:42:53.728Z,34.34
2023-03-13T07:45:21.312Z,34.34
2023-03-13T07:47:49.031Z,34.33
2023-03-13T07:50:16.770Z,34.32
2023-03-13T07:52:44.379Z,34.31
2023-03-13T07:55:12.377Z,34.31
2023-03-13T07:57:39.862Z,34.30
2023-03-13T08:00:11.969Z,34.31
2023-03-13T08:02:39.837Z,34.35
2023-03-13T08:05:07.789Z,34.33
2023-03-13T08:07:35.644Z,34.34
2023-03-13T08:10:03.096Z,34.34
2023-03-13T08:12:30.909Z,34.35
2023-03-13T08:14:58.720Z,34.34
2023-03-13T08:17:26.146Z,34.34
2023-03-13T08:19:53.821Z,34.34
2023-03-13T08:22:21.243Z,34.36
2023-03-13T08:24:48.717Z,34.35
2023-03-13T08:27:16.391Z,34.35
2023-03-13T08:29:43.827Z,34.36
2023-03-13T08:32:11.264Z,34.35
2023-03-13T08:34:38.990Z,34.34
2023-03-13T08:37:06.441Z,34.33
2023-03-13T08:39:35.444Z,34.33
2023-03-13T08:42:03.384Z,34.34
2023-03-13T08:44:30.897Z,34.33
2023-03-13T08:46:59.962Z,34.35
2023-03-13T08:49:27.743Z,34.36
2023-03-13T08:51:56.320Z,34.37
2023-03-13T08:54:23.754Z,34.38
2023-03-13T08:56:51.441Z,34.41
2023-03-13T08:59:18.927Z,34.38
2023-03-13T09:01:46.334Z,34.40
2023-03-13T09:04:14.436Z,34.41
2023-03-13T09:06:41.962Z,34.42
2023-03-13T09:09:09.756Z,34.40
2023-03-13T09:11:37.993Z,34.41
2023-03-13T09:14:05.657Z,34.39
2023-03-13T09:16:33.657Z,34.39
2023-03-13T09:19:01.481Z,34.38
2023-03-13T09:21:30.421Z,34.38
2023-03-13T09:23:57.986Z,34.37
2023-03-13T09:26:25.959Z,34.36
2023-03-13T09:28:53.537Z,34.33
2023-03-13T09:31:22.990Z,34.36
2023-03-13T09:33:50.911Z,34.36
2023-03-13T09:36:21.460Z,34.34
2023-03-13T09:38:53.819Z,34.34
2023-03-13T09:41:23.344Z,34.34
2023-03-13T09:43:52.553Z,34.34
2023-03-13T09:46:42.584Z,34.32
2023-03-13T09:49:18.577Z,34.28
2023-03-13T09:51:48.204Z,34.33
2023-03-13T09:54:15.761Z,34.32
2023-03-13T09:56:50.985Z,34.32
2023-03-13T09:59:20.522Z,34.33
2023-03-13T10:01:47.976Z,34.32
2023-03-13T10:04:28.030Z,34.31
2023-03-13T10:06:55.463Z,34.33
2023-03-13T10:09:27.223Z,34.34
2023-03-13T10:12:04.302Z,34.36
2023-03-13T10:14:40.053Z,34.32
2023-03-13T10:17:09.658Z,34.28
2023-03-13T10:19:42.194Z,34.20
2023-03-13T10:22:19.967Z,34.05
2023-03-13T10:24:59.576Z,34.02
2023-03-13T10:27:27.287Z,34.06
2023-03-13T10:29:55.059Z,34.21
2023-03-13T10:32:22.530Z,34.30
2023-03-13T10:34:52.834Z,34.29
2023-03-13T10:37:26.235Z,34.28
2023-03-13T10:39:53.871Z,34.25
2023-03-13T10:42:27.753Z,34.15
2023-03-13T10:44:59.223Z,34.00
2023-03-13T10:47:27.225Z,33.91
2023-03-13T10:49:57.956Z,33.91
2023-03-13T10:52:34.216Z,34.00
2023-03-13T10:55:06.355Z,33.89
2023-03-13T10:57:36.724Z,33.55
2023-03-13T11:00:23.556Z,33.26
2023-03-13T11:02:51.142Z,33.22
2023-03-13T11:05:32.651Z,33.31
2023-03-13T11:08:23.962Z,32.89
2023-03-13T11:11:02.093Z,32.79
2023-03-13T11:13:37.950Z,32.88
2023-03-13T11:16:14.934Z,32.93
2023-03-13T11:19:06.485Z,32.79
2023-03-13T11:21:43.637Z,32.36
2023-03-13T11:24:15.797Z,32.18
2023-03-13T11:27:12.499Z,32.14
2023-03-13T11:29:49.265Z,31.51
2023-03-13T11:32:35.991Z,31.34
2023-03-13T11:35:06.873Z,31.19
2023-03-13T11:37:35.706Z,31.80
2023-03-13T11:40:22.627Z,32.06
2023-03-13T11:43:28.830Z,32.18
2023-03-13T11:46:04.492Z,32.32
2023-03-13T11:48:47.281Z,32.48
2023-03-13T11:51:41.970Z,32.50
2023-03-13T11:54:09.581Z,32.60
2023-03-13T11:56:50.379Z,32.76
2023-03-13T12:00:06.478Z,32.69
2023-03-13T12:03:05.777Z,32.67
2023-03-13T12:05:47.159Z,32.81
2023-03-13T12:08:36.399Z,32.85
2023-03-13T12:11:10.159Z,32.70
2023-03-13T12:13:42.175Z,32.69
2023-03-13T12:16:12.133Z,32.75
2023-03-13T12:18:40.334Z,32.73
2023-03-13T12:21:37.504Z,32.72
2023-03-13T12:24:27.560Z,32.75
2023-03-13T12:27:10.634Z,32.73
2023-03-13T12:29:40.771Z,32.67
2023-03-13T12:32:38.842Z,32.85
2023-03-13T12:35:12.474Z,32.92
2023-03-13T12:37:44.179Z,32.95
2023-03-13T12:40:14.916Z,33.01
2023-03-13T12:42:44.405Z,33.02
2023-03-13T12:45:19.974Z,33.13
2023-03-13T12:48:05.588Z,33.02
2023-03-13T12:50:39.099Z,32.83
2023-03-13T12:53:14.805Z,32.80
2023-03-13T12:56:06.837Z,32.80
2023-03-13T12:58:49.696Z,32.78
2023-03-13T13:01:25.961Z,32.49
2023-03-13T13:03:57.669Z,31.72
2023-03-13T13:06:25.505Z,31.40
2023-03-13T13:08:52.796Z,31.17
2023-03-13T13:11:35.364Z,31.24
2023-03-13T13:14:26.070Z,31.42
2023-03-13T13:17:03.601Z,31.61
2023-03-13T13:19:40.558Z,31.78
2023-03-13T13:22:39.108Z,31.86
2023-03-13T13:25:12.631Z,31.93
2023-03-13T13:27:39.902Z,31.96
2023-03-13T13:30:19.823Z,32.00
2023-03-13T13:32:51.245Z,32.18
2023-03-13T13:35:24.210Z,32.26
2023-03-13T13:37:51.701Z,32.34
2023-03-13T13:40:21.604Z,32.37
2023-03-13T13:42:50.911Z,32.45
2023-03-13T13:45:37.942Z,32.56
2023-03-13T13:48:24.481Z,32.57
2023-03-13T13:51:18.623Z,32.65
2023-03-13T13:53:46.538Z,32.70
2023-03-13T13:56:29.443Z,32.78
2023-03-13T13:59:03.076Z,32.82
2023-03-13T14:01:31.002Z,32.89
2023-03-13T14:04:32.117Z,32.91
2023-03-13T14:07:02.223Z,32.98
2023-03-13T14:09:50.229Z,32.99
2023-03-13T14:12:34.328Z,33.00
2023-03-13T14:15:17.192Z,33.01
2023-03-13T14:17:44.572Z,33.01
2023-03-13T14:20:28.790Z,33.06
2023-03-13T14:23:01.127Z,33.04
2023-03-13T14:25:41.642Z,33.13
2023-03-13T14:28:25.604Z,33.12
2023-03-13T14:30:54.954Z,33.12
2023-03-13T14:33:22.433Z,33.14
2023-03-13T14:35:50.014Z,33.15
2023-03-13T14:38:25.393Z,33.22
2023-03-13T14:40:53.581Z,33.26
2023-03-13T14:43:25.041Z,33.29
2023-03-13T14:45:52.623Z,33.35
2023-03-13T14:48:27.203Z,33.37
2023-03-13T14:51:14.852Z,33.41
2023-03-13T14:54:02.338Z,33.45
2023-03-13T14:56:32.745Z,33.45
2023-03-13T14:59:23.464Z,33.52
2023-03-13T15:02:21.853Z,33.51
2023-03-13T15:04:49.199Z,33.54
2023-03-13T15:07:17.156Z,33.57
2023-03-13T15:09:46.314Z,33.59
2023-03-13T15:12:16.517Z,33.62
2023-03-13T15:14:46.097Z,33.60
2023-03-13T15:17:21.602Z,33.61
2023-03-13T15:19:50.828Z,33.58
2023-03-13T15:22:18.816Z,33.61
2023-03-13T15:24:56.292Z,33.61
2023-03-13T15:27:32.556Z,33.60
2023-03-13T15:30:00.135Z,33.47
2023-03-13T15:32:28.645Z,33.54
2023-03-13T15:35:01.812Z,33.58
2023-03-13T15:37:29.609Z,33.63
2023-03-13T15:39:57.472Z,33.64
2023-03-13T15:42:25.061Z,33.60
2023-03-13T15:44:52.516Z,33.51
2023-03-13T15:47:21.144Z,33.50
2023-03-13T15:49:48.569Z,33.42
2023-03-13T15:52:18.976Z,33.31
2023-03-13T15:54:46.872Z,33.19
2023-03-13T15:57:15.624Z,33.02
2023-03-13T15:59:44.259Z,32.82
2023-03-13T16:02:16.149Z,32.68
2023-03-13T16:04:44.434Z,32.55
2023-03-13T16:07:12.669Z,32.46
2023-03-13T16:09:42.400Z,32.34
2023-03-13T16:12:10.803Z,32.19
2023-03-13T16:14:38.522Z,32.06
2023-03-13T16:17:19.536Z,31.99
2023-03-13T16:19:47.274Z,31.94
2023-03-13T16:22:14.979Z,31.89
2023-03-13T16:24:42.473Z,31.84
2023-03-13T16:27:17.678Z,31.75
2023-03-13T16:29:45.683Z,31.68
2023-03-13T16:32:15.421Z,31.50
2023-03-13T16:34:43.166Z,31.39
2023-03-13T16:37:14.541Z,31.32
2023-03-13T16:39:43.508Z,31.33
2023-03-13T16:42:11.463Z,31.31
2023-03-13T16:44:39.186Z,31.29
2023-03-13T16:47:36.302Z,31.20
2023-03-13T16:50:15.025Z,31.08
2023-03-13T16:52:42.991Z,31.20
2023-03-13T16:55:10.585Z,31.21
2023-03-13T16:57:38.365Z,31.43
2023-03-13T17:00:23.211Z,31.43
2023-03-13T17:02:51.439Z,31.52
2023-03-13T17:05:19.727Z,31.38
2023-03-13T17:07:48.335Z,31.21
2023-03-13T17:10:30.182Z,31.03
2023-03-13T17:12:57.993Z,31.03
2023-03-13T17:15:26.916Z,31.03
2023-03-13T17:17:55.482Z,31.00
2023-03-13T17:20:26.617Z,30.95
2023-03-13T17:22:56.216Z,30.90
2023-03-13T17:25:24.827Z,30.87
2023-03-13T17:27:52.671Z,30.89
2023-03-13T17:30:27.210Z,30.94
2023-03-13T17:32:59.112Z,30.99
2023-03-13T17:35:27.539Z,30.98
2023-03-13T17:37:56.313Z,30.95
2023-03-13T17:40:27.123Z,30.99
2023-03-13T17:42:59.972Z,31.08
2023-03-13T17:45:27.997Z,31.18
2023-03-13T17:47:56.606Z,31.20
2023-03-13T17:50:27.491Z,31.33
2023-03-13T17:52:56.210Z,31.40
2023-03-13T17:55:24.519Z,31.50
2023-03-13T17:57:53.718Z,31.60
2023-03-13T18:00:25.394Z,31.71
2023-03-13T18:02:54.000Z,31.79
2023-03-13T18:05:21.971Z,31.85
2023-03-13T18:07:50.180Z,31.96
2023-03-13T18:10:23.266Z,32.05
2023-03-13T18:12:51.617Z,32.06
2023-03-13T18:15:20.480Z,32.18
2023-03-13T18:17:50.145Z,32.25
2023-03-13T18:20:19.559Z,32.31
2023-03-13T18:22:48.338Z,32.22
2023-03-13T18:25:16.419Z,32.40
2023-03-13T18:27:44.278Z,32.50
2023-03-13T18:30:17.677Z,32.59
2023-03-13T18:32:46.567Z,32.69
2023-03-13T18:35:15.861Z,32.70
2023-03-13T18:37:45.475Z,32.73
2023-03-13T18:40:21.707Z,32.79
2023-03-13T18:42:51.302Z,32.84
2023-03-13T18:45:21.875Z,32.86
2023-03-13T18:47:50.607Z,32.92
2023-03-13T18:50:33.536Z,32.98
2023-03-13T18:53:02.990Z,33.00
2023-03-13T18:55:31.924Z,33.04
2023-03-13T18:58:01.491Z,33.10
2023-03-13T19:00:30.766Z,33.19
2023-03-13T19:02:59.560Z,33.22
2023-03-13T19:05:28.585Z,33.24
2023-03-13T19:07:58.300Z,33.37
2023-03-13T19:10:30.038Z,33.41
2023-03-13T19:12:58.387Z,33.45
2023-03-13T19:15:28.047Z,33.52
2023-03-13T19:17:56.908Z,33.54
2023-03-13T19:20:26.078Z,33.52
2023-03-13T19:22:58.577Z,33.52
2023-03-13T19:25:28.281Z,33.58
2023-03-13T19:27:56.749Z,33.63
2023-03-13T19:30:27.250Z,33.70
2023-03-13T19:32:57.430Z,33.74
2023-03-13T19:35:26.399Z,33.72
2023-03-13T19:37:55.446Z,33.73
2023-03-13T19:40:26.320Z,33.77
2023-03-13T19:42:55.329Z,33.83
2023-03-13T19:45:29.761Z,33.87
2023-03-13T19:47:59.410Z,33.90
2023-03-13T19:50:28.417Z,33.93
2023-03-13T19:52:57.359Z,33.74
2023-03-13T19:55:26.340Z,33.86
2023-03-13T19:57:55.487Z,33.92
2023-03-13T20:00:31.150Z,33.93
2023-03-13T20:03:04.883Z,33.97
2023-03-13T20:05:33.133Z,33.94
2023-03-13T20:08:02.478Z,33.98
2023-03-13T20:10:31.540Z,33.98
2023-03-13T20:13:16.584Z,34.00
2023-03-13T20:15:45.807Z,33.94
2023-03-13T20:18:16.716Z,33.89
2023-03-13T20:20:45.541Z,33.96
2023-03-13T20:23:15.553Z,33.97
2023-03-13T20:25:45.515Z,33.99
2023-03-13T20:28:14.646Z,34.01
2023-03-13T20:30:45.089Z,33.98
2023-03-13T20:33:14.307Z,33.95
2023-03-13T20:35:42.623Z,33.96
2023-03-13T20:38:11.683Z,34.08
2023-03-13T20:40:41.073Z,34.23
2023-03-13T20:43:10.034Z,34.26
2023-03-13T20:45:39.160Z,34.34
2023-03-13T20:48:09.963Z,34.26
2023-03-13T20:50:39.102Z,34.30
2023-03-13T20:53:07.669Z,34.20
2023-03-13T20:55:38.782Z,34.19
2023-03-13T20:58:07.608Z,34.18
2023-03-13T21:00:36.653Z,34.20
2023-03-13T21:03:05.742Z,34.11
2023-03-13T21:05:34.241Z,34.11
2023-03-13T21:08:03.469Z,34.15
2023-03-13T21:10:32.023Z,34.11
2023-03-13T21:13:02.499Z,34.15
2023-03-13T21:15:31.605Z,34.19
2023-03-13T21:18:00.221Z,34.24
2023-03-13T21:20:28.673Z,34.24
2023-03-13T21:22:57.129Z,34.26
2023-03-13T21:25:24.992Z,34.28
2023-03-13T21:27:52.726Z,34.30
2023-03-13T21:30:21.843Z,34.35
2023-03-13T21:32:49.544Z,34.33
2023-03-13T21:35:17.204Z,34.35
2023-03-13T21:37:45.289Z,32.31
2023-03-13T21:40:12.983Z,32.51
2023-03-13T21:42:40.483Z,32.79
2023-03-13T21:45:08.913Z,33.14
2023-03-13T21:47:37.129Z,33.31
2023-03-13T21:50:06.269Z,33.40
2023-03-13T21:52:40.667Z,33.47
2023-03-13T21:55:11.149Z,33.49
2023-03-13T21:57:38.862Z,33.55
2023-03-13T22:00:08.244Z,33.40
2023-03-13T22:02:37.384Z,33.61
2023-03-13T22:05:07.277Z,33.69
2023-03-13T22:07:35.781Z,33.75
2023-03-13T22:10:03.707Z,33.79
2023-03-13T22:12:31.302Z,33.84
2023-03-13T22:14:58.955Z,33.89
2023-03-13T22:17:26.840Z,33.95
2023-03-13T22:19:54.303Z,34.00
2023-03-13T22:22:22.116Z,34.07
2023-03-13T22:24:49.885Z,34.09
2023-03-13T22:27:19.469Z,34.12
2023-03-13T22:29:47.692Z,34.22
2023-03-13T22:32:16.865Z,34.30
2023-03-13T22:34:47.208Z,34.30
2023-03-13T22:37:15.107Z,34.38
2023-03-13T22:39:42.552Z,34.42
2023-03-13T22:42:09.961Z,34.47
2023-03-13T22:44:37.684Z,34.59
2023-03-13T22:47:05.160Z,34.59
2023-03-13T22:49:32.579Z,34.60
2023-03-13T22:52:00.330Z,34.64
2023-03-13T22:54:27.789Z,34.65
2023-03-13T22:56:55.230Z,34.66
2023-03-13T22:59:23.006Z,34.81
2023-03-13T23:01:50.434Z,34.94
2023-03-13T23:04:17.860Z,34.97
2023-03-13T23:06:45.591Z,34.95
2023-03-13T23:09:13.031Z,34.91
2023-03-13T23:11:40.477Z,35.03
2023-03-13T23:14:08.199Z,35.17
2023-03-13T23:16:35.982Z,35.16
2023-03-13T23:19:03.398Z,35.16
2023-03-13T23:21:31.105Z,35.14
2023-03-13T23:23:58.538Z,35.12
2023-03-13T23:26:25.977Z,35.18
2023-03-13T23:28:54.197Z,35.20
2023-03-13T23:31:21.946Z,35.19
2023-03-13T23:33:49.541Z,35.20
2023-03-13T23:36:18.217Z,35.30
2023-03-13T23:38:48.778Z,35.32
2023-03-13T23:41:16.209Z,35.33
2023-03-13T23:43:43.935Z,35.33
2023-03-13T23:46:25.989Z,35.35
2023-03-13T23:48:57.311Z,35.34
2023-03-13T23:51:24.955Z,35.40
2023-03-13T23:53:52.415Z,35.47
2023-03-13T23:56:20.619Z,35.52
2023-03-13T23:58:48.079Z,35.58
